Time;durP1;ratioP1;P1;durP2;ratioP2;P2;SDS_P1;SDS_P2;PMS_P1;PMS_P2;Temp;Humidity;BMP_temperature;BMP_pressure;BME280_temperature;BME280_humidity;BME280_pressure;Samples;Min_cycle;Max_cycle;Signal;HPM_P1;HPM_P2
2023/05/31 00:01:58;;;;;;;5.95;3.72;;;;;;;;;;5014557;28;20038;-86
2023/05/31 00:04:25;;;;;;;7.13;4.00;;;;;;;;;;5012518;28;20038;-86
2023/05/31 00:06:50;;;;;;;6.55;3.88;;;;;;;;;;5009217;28;20034;-86
2023/05/31 00:09:16;;;;;;;6.10;3.60;;;;;;;;;;5008324;28;20042;-87
2023/05/31 00:11:41;;;;;;;6.07;3.80;;;;;;;;;;5011098;28;20034;-86
2023/05/31 00:14:07;;;;;;;4.88;4.10;;;;;;;;;;5014270;28;20041;-86
2023/05/31 00:16:33;;;;;;;7.78;4.00;;;;;;;;;;5018397;28;20608;-86
2023/05/31 00:18:58;;;;;;;6.93;3.78;;;;;;;;;;5019870;28;20034;-86
2023/05/31 00:21:24;;;;;;;6.18;3.88;;;;;;;;;;5023329;28;20563;-86
2023/05/31 00:23:49;;;;;;;6.25;3.72;;;;;;;;;;5023554;28;20030;-86
2023/05/31 00:26:15;;;;;;;5.93;3.78;;;;;;;;;;5009832;28;20038;-87
2023/05/31 00:28:42;;;;;;;6.35;3.65;;;;;;;;;;5011348;28;20030;-87
2023/05/31 00:31:07;;;;;;;7.35;3.95;;;;;;;;;;5014793;28;20113;-86
2023/05/31 00:33:33;;;;;;;7.45;4.05;;;;;;;;;;5017519;28;20396;-86
2023/05/31 00:35:58;;;;;;;7.65;4.30;;;;;;;;;;5021027;28;20030;-86
2023/05/31 00:38:24;;;;;;;8.35;3.80;;;;;;;;;;5022682;28;20117;-87
2023/05/31 00:40:49;;;;;;;6.70;4.28;;;;;;;;;;5019108;28;20049;-86
2023/05/31 00:43:15;;;;;;;6.38;3.90;;;;;;;;;;5008861;28;20042;-87
2023/05/31 00:45:40;;;;;;;5.97;3.92;;;;;;;;;;5011695;28;20035;-86
2023/05/31 00:48:06;;;;;;;6.15;4.13;;;;;;;;;;5013963;28;20034;-86
2023/05/31 00:50:31;;;;;;;7.10;4.05;;;;;;;;;;5017193;28;20033;-87
2023/05/31 00:53:00;;;;;;;7.20;4.00;;;;;;;;;;5022312;28;20030;-87
2023/05/31 00:55:27;;;;;;;6.78;3.80;;;;;;;;;;5026010;28;20049;-86
2023/05/31 00:57:52;;;;;;;6.00;3.92;;;;;;;;;;5023113;28;20563;-86
2023/05/31 01:00:19;;;;;;;5.35;3.53;;;;;;;;;;5023766;28;20045;-87
2023/05/31 01:02:45;;;;;;;5.25;3.83;;;;;;;;;;5024288;28;20038;-86
2023/05/31 01:05:10;;;;;;;6.10;3.85;;;;;;;;;;5007920;28;20158;-87
2023/05/31 01:07:37;;;;;;;6.65;3.63;;;;;;;;;;5019177;28;20046;-86
2023/05/31 01:10:05;;;;;;;7.05;4.10;;;;;;;;;;5009314;28;20038;-87
2023/05/31 01:13:02;;;;;;;5.32;3.90;;;;;;;;;;5009134;28;20056;-86
2023/05/31 01:15:39;;;;;;;8.65;4.20;;;;;;;;;;5009300;28;20058;-86
2023/05/31 01:18:32;;;;;;;5.75;3.60;;;;;;;;;;5012941;28;20531;-86
2023/05/31 01:21:03;;;;;;;7.90;3.92;;;;;;;;;;5015145;28;20068;-85
2023/05/31 01:23:53;;;;;;;5.25;3.63;;;;;;;;;;5023013;28;20039;-87
2023/05/31 01:26:37;;;;;;;9.75;4.45;;;;;;;;;;5013011;28;20034;-87
2023/05/31 01:29:16;;;;;;;6.55;4.20;;;;;;;;;;5029922;28;20072;-87
2023/05/31 01:31:45;;;;;;;7.53;4.35;;;;;;;;;;5013158;28;20046;-86
2023/05/31 01:34:11;;;;;;;5.50;4.05;;;;;;;;;;5016142;28;20045;-86
2023/05/31 01:36:37;;;;;;;6.75;3.88;;;;;;;;;;5018429;28;20054;-86
2023/05/31 01:39:03;;;;;;;5.88;3.92;;;;;;;;;;5012500;28;20069;-86
2023/05/31 01:41:33;;;;;;;6.68;4.20;;;;;;;;;;5023065;28;20042;-86
2023/05/31 01:43:59;;;;;;;10.52;4.22;;;;;;;;;;5014430;28;20030;-86
2023/05/31 01:46:26;;;;;;;7.72;4.30;;;;;;;;;;5011944;28;20044;-86
2023/05/31 01:48:52;;;;;;;6.93;3.95;;;;;;;;;;5012881;28;20042;-86
2023/05/31 01:51:20;;;;;;;6.15;3.92;;;;;;;;;;5018195;28;20057;-87
2023/05/31 01:53:47;;;;;;;5.38;3.70;;;;;;;;;;5028177;28;20396;-86
2023/05/31 01:56:13;;;;;;;6.40;3.88;;;;;;;;;;5021842;28;20034;-86
2023/05/31 01:58:50;;;;;;;5.53;3.80;;;;;;;;;;5024941;28;20041;-86
2023/05/31 02:01:17;;;;;;;9.75;3.90;;;;;;;;;;5042130;28;20052;-86
2023/05/31 02:03:43;;;;;;;6.70;4.28;;;;;;;;;;5018186;28;20069;-86
2023/05/31 02:06:12;;;;;;;6.88;3.90;;;;;;;;;;5014747;28;20030;-86
2023/05/31 02:08:39;;;;;;;8.38;4.05;;;;;;;;;;5027271;28;20507;-86
2023/05/31 02:11:06;;;;;;;6.97;3.80;;;;;;;;;;5036737;28;20033;-86
2023/05/31 02:13:32;;;;;;;5.15;3.67;;;;;;;;;;5022808;28;20034;-86
2023/05/31 02:15:58;;;;;;;6.80;3.90;;;;;;;;;;5026228;28;20121;-86
2023/05/31 02:18:27;;;;;;;8.45;3.90;;;;;;;;;;5028787;28;20036;-86
2023/05/31 02:20:53;;;;;;;5.72;3.90;;;;;;;;;;5027324;28;20034;-86
2023/05/31 02:23:20;;;;;;;5.20;3.85;;;;;;;;;;5014789;28;20034;-86
2023/05/31 02:25:49;;;;;;;10.32;4.10;;;;;;;;;;5017431;28;20038;-86
2023/05/31 02:28:16;;;;;;;6.40;3.80;;;;;;;;;;5025934;28;20034;-86
2023/05/31 02:30:52;;;;;;;5.20;3.80;;;;;;;;;;5017574;28;20038;-86
2023/05/31 02:33:18;;;;;;;7.22;3.90;;;;;;;;;;5013094;28;20042;-86
2023/05/31 02:35:43;;;;;;;7.40;4.15;;;;;;;;;;4994295;28;20040;-86
2023/05/31 02:38:08;;;;;;;6.95;3.80;;;;;;;;;;5013125;28;20069;-86
2023/05/31 02:40:35;;;;;;;9.48;3.85;;;;;;;;;;5027421;28;20034;-86
2023/05/31 02:43:01;;;;;;;7.10;4.28;;;;;;;;;;5019948;28;20041;-85
2023/05/31 02:45:26;;;;;;;7.40;4.20;;;;;;;;;;5012406;28;20423;-86
2023/05/31 02:47:53;;;;;;;6.88;4.30;;;;;;;;;;5024269;28;20484;-85
2023/05/31 02:50:19;;;;;;;7.78;4.07;;;;;;;;;;5028620;28;20030;-86
2023/05/31 02:52:54;;;;;;;10.02;4.22;;;;;;;;;;5020829;28;20031;-86
2023/05/31 02:55:49;;;;;;;5.60;3.80;;;;;;;;;;5006080;28;20125;-85
2023/05/31 02:58:23;;;;;;;5.90;4.40;;;;;;;;;;5026354;28;20040;-86
2023/05/31 03:01:11;;;;;;;8.27;4.32;;;;;;;;;;5001051;28;20050;-85
2023/05/31 03:03:45;;;;;;;9.40;4.00;;;;;;;;;;5014639;28;20666;-85
2023/05/31 03:06:21;;;;;;;6.68;3.95;;;;;;;;;;5011765;28;20084;-85
2023/05/31 03:08:47;;;;;;;7.68;3.90;;;;;;;;;;5022486;28;20038;-85
2023/05/31 03:11:13;;;;;;;7.10;4.07;;;;;;;;;;5027324;28;20049;-86
2023/05/31 03:13:39;;;;;;;6.47;4.20;;;;;;;;;;5015145;28;20038;-86
2023/05/31 03:16:05;;;;;;;9.00;4.07;;;;;;;;;;5025710;28;20038;-85
2023/05/31 03:18:31;;;;;;;7.30;4.40;;;;;;;;;;5028793;28;20034;-85
2023/05/31 03:20:56;;;;;;;8.48;4.13;;;;;;;;;;5028360;28;20045;-85
2023/05/31 03:23:23;;;;;;;6.82;4.20;;;;;;;;;;5023337;28;20030;-84
2023/05/31 03:25:49;;;;;;;7.45;4.22;;;;;;;;;;5010437;28;20056;-85
2023/05/31 03:28:15;;;;;;;7.07;3.92;;;;;;;;;;5010500;28;20045;-85
2023/05/31 03:30:41;;;;;;;5.63;3.63;;;;;;;;;;5026074;28;20026;-85
2023/05/31 03:33:08;;;;;;;6.07;3.72;;;;;;;;;;5017276;28;20034;-85
2023/05/31 03:35:33;;;;;;;6.50;3.90;;;;;;;;;;5019700;28;20093;-85
2023/05/31 03:38:02;;;;;;;11.63;3.70;;;;;;;;;;5026836;28;20026;-85
2023/05/31 03:40:28;;;;;;;6.25;3.85;;;;;;;;;;5024307;28;20052;-85
2023/05/31 03:42:54;;;;;;;5.85;3.80;;;;;;;;;;5011388;28;20408;-85
2023/05/31 03:45:21;;;;;;;8.35;4.18;;;;;;;;;;5022068;28;20030;-85
2023/05/31 03:47:47;;;;;;;7.15;4.18;;;;;;;;;;5025670;28;20049;-87
2023/05/31 03:50:14;;;;;;;5.88;3.75;;;;;;;;;;5019056;28;20030;-87
2023/05/31 03:52:39;;;;;;;6.60;3.78;;;;;;;;;;5021525;28;20041;-87
2023/05/31 03:55:05;;;;;;;7.80;3.80;;;;;;;;;;5011013;28;20038;-87
2023/05/31 03:57:32;;;;;;;7.20;3.85;;;;;;;;;;5024573;28;20034;-86
2023/05/31 03:59:59;;;;;;;6.63;4.03;;;;;;;;;;5011325;28;20698;-86
2023/05/31 04:02:25;;;;;;;5.82;3.75;;;;;;;;;;5024201;28;20100;-87
2023/05/31 04:04:51;;;;;;;6.57;4.13;;;;;;;;;;5025404;28;20034;-86
2023/05/31 04:07:16;;;;;;;11.93;4.10;;;;;;;;;;5018667;28;20405;-86
2023/05/31 04:09:42;;;;;;;6.30;4.10;;;;;;;;;;5020441;28;20124;-87
2023/05/31 04:12:08;;;;;;;6.93;4.43;;;;;;;;;;5026348;28;20042;-87
2023/05/31 04:14:34;;;;;;;9.80;4.65;;;;;;;;;;5007901;28;20030;-86
2023/05/31 04:17:01;;;;;;;8.70;4.18;;;;;;;;;;5010142;28;20050;-86
2023/05/31 04:19:27;;;;;;;6.53;4.18;;;;;;;;;;5013899;28;20154;-86
2023/05/31 04:21:52;;;;;;;7.78;4.28;;;;;;;;;;5025562;28;20042;-86
2023/05/31 04:24:18;;;;;;;7.93;4.95;;;;;;;;;;5009325;28;20033;-86
2023/05/31 04:26:45;;;;;;;10.95;3.92;;;;;;;;;;5023485;28;20053;-87
2023/05/31 04:29:11;;;;;;;8.57;4.22;;;;;;;;;;5024345;28;20045;-86
2023/05/31 04:31:37;;;;;;;8.52;5.00;;;;;;;;;;5016109;28;20060;-87
2023/05/31 04:34:04;;;;;;;7.40;4.20;;;;;;;;;;5010899;28;20034;-87
2023/05/31 04:36:32;;;;;;;7.25;3.92;;;;;;;;;;5014739;28;20516;-86
2023/05/31 04:38:59;;;;;;;8.70;4.40;;;;;;;;;;5025377;28;20029;-87
2023/05/31 04:41:28;;;;;;;6.75;3.97;;;;;;;;;;5020625;28;20554;-86
2023/05/31 04:43:56;;;;;;;7.35;4.30;;;;;;;;;;5023465;28;20286;-86
2023/05/31 04:46:24;;;;;;;6.03;4.13;;;;;;;;;;5002962;28;20041;-86
2023/05/31 04:48:51;;;;;;;8.15;4.22;;;;;;;;;;5007980;28;20040;-86
2023/05/31 04:51:18;;;;;;;7.65;4.50;;;;;;;;;;5011614;28;20073;-86
2023/05/31 04:53:45;;;;;;;6.40;4.40;;;;;;;;;;5023381;28;20061;-87
2023/05/31 04:56:12;;;;;;;5.97;4.15;;;;;;;;;;5014904;28;20125;-86
2023/05/31 04:58:39;;;;;;;9.05;4.45;;;;;;;;;;5019906;28;20029;-86
2023/05/31 05:01:04;;;;;;;6.18;4.10;;;;;;;;;;5029515;28;20453;-86
2023/05/31 05:03:39;;;;;;;8.02;4.70;;;;;;;;;;5021447;28;20038;-86
2023/05/31 05:06:16;;;;;;;7.53;4.03;;;;;;;;;;5009898;28;20062;-87
2023/05/31 05:08:42;;;;;;;8.98;4.07;;;;;;;;;;5015757;28;20039;-86
2023/05/31 05:11:08;;;;;;;8.55;4.60;;;;;;;;;;5028412;28;20579;-87
2023/05/31 05:13:34;;;;;;;7.07;4.20;;;;;;;;;;5001034;28;20026;-86
2023/05/31 05:16:00;;;;;;;5.47;4.07;;;;;;;;;;5023585;28;20034;-86
2023/05/31 05:18:26;;;;;;;5.60;4.00;;;;;;;;;;5010180;28;20084;-86
2023/05/31 05:20:52;;;;;;;7.18;4.20;;;;;;;;;;5010260;28;20061;-86
2023/05/31 05:23:23;;;;;;;7.43;4.32;;;;;;;;;;5022066;28;20037;-84
2023/05/31 05:25:49;;;;;;;10.82;4.40;;;;;;;;;;5021119;28;20034;-86
2023/05/31 05:28:15;;;;;;;7.70;4.70;;;;;;;;;;5016759;28;20092;-86
2023/05/31 05:30:40;;;;;;;15.38;8.02;;;;;;;;;;5014833;28;20041;-86
2023/05/31 05:33:06;;;;;;;8.80;4.45;;;;;;;;;;5025000;28;20416;-86
2023/05/31 05:35:35;;;;;;;5.90;4.03;;;;;;;;;;5025023;28;20093;-87
2023/05/31 05:38:01;;;;;;;6.93;4.13;;;;;;;;;;5026112;28;20030;-85
2023/05/31 05:40:27;;;;;;;9.30;4.35;;;;;;;;;;5014994;28;20044;-86
2023/05/31 05:42:53;;;;;;;8.18;4.40;;;;;;;;;;5018634;28;20139;-87
2023/05/31 05:45:19;;;;;;;6.30;4.20;;;;;;;;;;5012313;28;20045;-86
2023/05/31 05:47:45;;;;;;;6.75;4.40;;;;;;;;;;5023717;28;20045;-86
2023/05/31 05:50:12;;;;;;;6.68;3.83;;;;;;;;;;5025159;28;20411;-87
2023/05/31 05:52:41;;;;;;;7.22;4.50;;;;;;;;;;5023211;28;20118;-86
2023/05/31 05:55:07;;;;;;;5.93;3.67;;;;;;;;;;5012532;28;20045;-86
2023/05/31 05:57:33;;;;;;;8.93;4.10;;;;;;;;;;5014896;28;20034;-86
2023/05/31 06:00:17;;;;;;;6.07;3.90;;;;;;;;;;5023502;28;20049;-87
2023/05/31 06:02:45;;;;;;;7.25;4.03;;;;;;;;;;5016470;28;20105;-86
2023/05/31 06:05:12;;;;;;;5.28;3.92;;;;;;;;;;5013087;28;20057;-86
2023/05/31 06:07:38;;;;;;;7.70;4.03;;;;;;;;;;4994013;28;20038;-86
2023/05/31 06:10:04;;;;;;;6.85;4.20;;;;;;;;;;5024991;28;20049;-86
2023/05/31 06:12:30;;;;;;;7.22;4.28;;;;;;;;;;5007749;28;20034;-86
2023/05/31 06:14:57;;;;;;;8.80;4.13;;;;;;;;;;5026938;28;20385;-87
2023/05/31 06:17:23;;;;;;;9.32;4.60;;;;;;;;;;5015926;28;20125;-87
2023/05/31 06:19:48;;;;;;;7.03;4.28;;;;;;;;;;5025013;28;20443;-86
2023/05/31 06:22:14;;;;;;;6.03;4.13;;;;;;;;;;5025359;28;20040;-87
2023/05/31 06:24:40;;;;;;;7.47;4.38;;;;;;;;;;5022136;28;20062;-86
2023/05/31 06:27:06;;;;;;;8.77;4.10;;;;;;;;;;5009168;28;20038;-87
2023/05/31 06:29:36;;;;;;;6.45;4.05;;;;;;;;;;5020785;28;20038;-87
2023/05/31 06:32:19;;;;;;;8.97;4.33;;;;;;;;;;5023476;28;20065;-86
2023/05/31 06:34:46;;;;;;;8.40;4.35;;;;;;;;;;5019037;28;20084;-87
2023/05/31 06:37:12;;;;;;;9.63;4.40;;;;;;;;;;5025665;28;20034;-85
2023/05/31 06:39:37;;;;;;;7.45;4.38;;;;;;;;;;5026989;28;20038;-85
2023/05/31 06:42:03;;;;;;;10.10;4.30;;;;;;;;;;5026493;28;20497;-85
2023/05/31 06:44:47;;;;;;;8.90;4.38;;;;;;;;;;5008822;28;20594;-85
2023/05/31 06:47:26;;;;;;;12.13;4.50;;;;;;;;;;5018234;28;20176;-85
2023/05/31 06:50:12;;;;;;;7.95;4.28;;;;;;;;;;5013426;28;20133;-85
2023/05/31 06:52:56;;;;;;;6.78;3.85;;;;;;;;;;5010163;28;20049;-86
2023/05/31 06:55:43;;;;;;;7.25;3.97;;;;;;;;;;5016305;28;20064;-85
2023/05/31 06:58:15;;;;;;;7.95;4.10;;;;;;;;;;5013099;28;20030;-84
2023/05/31 07:00:41;;;;;;;8.77;4.32;;;;;;;;;;5003066;28;20025;-85
2023/05/31 07:03:07;;;;;;;9.18;4.03;;;;;;;;;;5018098;28;20112;-85
2023/05/31 07:05:33;;;;;;;9.20;4.00;;;;;;;;;;5001443;28;20046;-86
2023/05/31 07:08:00;;;;;;;7.20;4.05;;;;;;;;;;5014382;28;20089;-85
2023/05/31 07:10:29;;;;;;;7.57;4.13;;;;;;;;;;5016523;28;20133;-85
2023/05/31 07:12:55;;;;;;;7.35;3.80;;;;;;;;;;5020294;28;20034;-84
2023/05/31 07:15:21;;;;;;;13.40;4.07;;;;;;;;;;5018454;28;20038;-85
2023/05/31 07:17:47;;;;;;;8.73;4.30;;;;;;;;;;5019703;28;20611;-85
2023/05/31 07:20:12;;;;;;;6.68;3.92;;;;;;;;;;5019539;28;20030;-86
2023/05/31 07:22:38;;;;;;;8.05;3.83;;;;;;;;;;5010946;28;20443;-85
2023/05/31 07:25:04;;;;;;;7.82;4.10;;;;;;;;;;5019887;28;20061;-85
2023/05/31 07:27:31;;;;;;;7.00;4.10;;;;;;;;;;5017482;28;20511;-84
2023/05/31 07:29:56;;;;;;;7.57;4.00;;;;;;;;;;5020159;28;20064;-86
2023/05/31 07:32:22;;;;;;;11.75;4.22;;;;;;;;;;5017894;28;20038;-87
2023/05/31 07:34:47;;;;;;;8.93;4.00;;;;;;;;;;5007557;28;20042;-85
2023/05/31 07:37:13;;;;;;;8.10;4.13;;;;;;;;;;5010642;28;20037;-85
2023/05/31 07:39:39;;;;;;;7.70;3.60;;;;;;;;;;5017777;28;20141;-85
2023/05/31 07:42:05;;;;;;;8.88;3.92;;;;;;;;;;5008815;28;20434;-85
2023/05/31 07:44:30;;;;;;;7.68;3.58;;;;;;;;;;5017632;28;20130;-85
2023/05/31 07:46:56;;;;;;;8.80;3.60;;;;;;;;;;5019096;28;20106;-84
2023/05/31 07:49:21;;;;;;;7.60;3.85;;;;;;;;;;5010241;28;20038;-83
2023/05/31 07:51:47;;;;;;;7.13;3.70;;;;;;;;;;5011667;28;20046;-83
2023/05/31 07:54:13;;;;;;;5.32;3.28;;;;;;;;;;5004506;28;20046;-84
2023/05/31 07:56:38;;;;;;;7.68;3.50;;;;;;;;;;5013457;28;20034;-85
2023/05/31 07:59:04;;;;;;;6.00;3.30;;;;;;;;;;5008514;28;20018;-85
2023/05/31 08:01:30;;;;;;;6.60;3.65;;;;;;;;;;5010954;28;20431;-84
2023/05/31 08:04:08;;;;;;;9.88;3.75;;;;;;;;;;5009291;28;20042;-84
2023/05/31 08:06:33;;;;;;;8.00;3.75;;;;;;;;;;5011319;28;20042;-85
2023/05/31 08:08:59;;;;;;;8.50;3.90;;;;;;;;;;5009709;28;20042;-85
2023/05/31 08:11:27;;;;;;;6.45;3.35;;;;;;;;;;5014157;28;20050;-84
2023/05/31 08:13:52;;;;;;;7.22;3.70;;;;;;;;;;5003102;28;20042;-84
2023/05/31 08:16:18;;;;;;;9.57;3.53;;;;;;;;;;4999743;28;20408;-85
2023/05/31 08:18:44;;;;;;;6.93;3.58;;;;;;;;;;4998917;28;20062;-85
2023/05/31 08:21:11;;;;;;;8.35;3.72;;;;;;;;;;4994827;28;20030;-85
2023/05/31 08:23:36;;;;;;;10.52;3.40;;;;;;;;;;5001110;28;20088;-85
2023/05/31 08:26:02;;;;;;;9.02;3.35;;;;;;;;;;5005760;28;20507;-84
2023/05/31 08:28:29;;;;;;;9.27;3.38;;;;;;;;;;5008519;28;20050;-85
2023/05/31 08:30:55;;;;;;;6.80;3.28;;;;;;;;;;5016381;28;20041;-85
2023/05/31 08:33:21;;;;;;;8.13;3.20;;;;;;;;;;5019733;28;20040;-85
2023/05/31 08:35:46;;;;;;;7.18;3.58;;;;;;;;;;5021192;28;20037;-85
2023/05/31 08:38:12;;;;;;;6.25;3.08;;;;;;;;;;5005250;28;20037;-85
2023/05/31 08:40:38;;;;;;;6.93;3.00;;;;;;;;;;5007031;28;20079;-86
2023/05/31 08:43:15;;;;;;;7.80;3.15;;;;;;;;;;5011525;28;20034;-86
2023/05/31 08:45:42;;;;;;;6.18;2.83;;;;;;;;;;5010473;28;20090;-85
2023/05/31 08:48:24;;;;;;;5.22;2.85;;;;;;;;;;5016685;28;20046;-85
2023/05/31 08:50:51;;;;;;;7.38;3.03;;;;;;;;;;5002484;28;20057;-85
2023/05/31 08:53:17;;;;;;;5.88;3.10;;;;;;;;;;5004723;28;20064;-86
2023/05/31 08:55:45;;;;;;;8.10;3.00;;;;;;;;;;5008597;28;20065;-88
2023/05/31 08:58:11;;;;;;;6.90;3.03;;;;;;;;;;5010657;28;20033;-86
2023/05/31 09:00:36;;;;;;;6.75;3.00;;;;;;;;;;5014775;28;20026;-87
2023/05/31 09:03:06;;;;;;;10.15;3.30;;;;;;;;;;5015055;28;20060;-86
2023/05/31 09:05:31;;;;;;;8.43;2.83;;;;;;;;;;5017380;28;20030;-86
2023/05/31 09:07:59;;;;;;;9.98;2.95;;;;;;;;;;5013658;28;20504;-86
2023/05/31 09:10:25;;;;;;;6.85;2.70;;;;;;;;;;5016449;28;20104;-86
2023/05/31 09:12:50;;;;;;;9.63;3.55;;;;;;;;;;5014841;28;20379;-86
2023/05/31 09:15:17;;;;;;;7.50;2.88;;;;;;;;;;5010656;28;20273;-85
2023/05/31 09:17:44;;;;;;;6.25;3.00;;;;;;;;;;5002228;28;20030;-86
2023/05/31 09:20:10;;;;;;;6.88;2.85;;;;;;;;;;5000139;28;20050;-86
2023/05/31 09:22:36;;;;;;;7.30;2.90;;;;;;;;;;5001239;28;20032;-87
2023/05/31 09:25:01;;;;;;;6.38;3.17;;;;;;;;;;5014478;28;20128;-85
2023/05/31 09:27:34;;;;;;;7.28;3.08;;;;;;;;;;5009550;28;20385;-85
2023/05/31 09:30:08;;;;;;;12.80;3.22;;;;;;;;;;5005501;28;20175;-85
2023/05/31 09:32:34;;;;;;;;;;;;;;;;;;5003025;28;20061;-83
2023/05/31 09:35:09;;;;;;;10.13;2.85;;;;;;;;;;5002913;28;19910;-85
2023/05/31 09:37:43;;;;;;;7.10;2.65;;;;;;;;;;5006902;28;20038;-87
2023/05/31 09:40:08;;;;;;;8.40;2.85;;;;;;;;;;5012175;28;20114;-85
2023/05/31 09:42:34;;;;;;;9.38;3.15;;;;;;;;;;5014009;28;20033;-86
2023/05/31 09:45:00;;;;;;;8.60;2.85;;;;;;;;;;5015936;28;20030;-86
2023/05/31 09:47:25;;;;;;;7.78;2.80;;;;;;;;;;5005391;28;20468;-86
2023/05/31 09:49:54;;;;;;;8.40;3.10;;;;;;;;;;5009241;28;20046;-86
2023/05/31 09:52:28;;;;;;;7.50;2.85;;;;;;;;;;5018199;28;20492;-85
2023/05/31 09:54:56;;;;;;;5.30;2.88;;;;;;;;;;5017428;28;20131;-85
2023/05/31 09:57:33;;;;;;;15.35;2.95;;;;;;;;;;5018132;28;20787;-85
2023/05/31 09:59:59;;;;;;;8.07;3.05;;;;;;;;;;5018783;28;20121;-85
2023/05/31 10:02:29;;;;;;;10.60;3.15;;;;;;;;;;5008550;28;20030;-85
2023/05/31 10:04:56;;;;;;;7.28;3.00;;;;;;;;;;5008828;28;20570;-85
2023/05/31 10:07:22;;;;;;;6.35;2.90;;;;;;;;;;5013129;28;20045;-85
2023/05/31 10:09:48;;;;;;;9.65;2.92;;;;;;;;;;5018816;28;20041;-86
2023/05/31 10:12:18;;;;;;;7.13;2.97;;;;;;;;;;5015642;28;20030;-87
2023/05/31 10:14:53;;;;;;;7.30;3.30;;;;;;;;;;5018007;28;20093;-86
2023/05/31 10:17:23;;;;;;;5.65;2.80;;;;;;;;;;5009846;28;20083;-86
2023/05/31 10:19:54;;;;;;;6.20;2.97;;;;;;;;;;5018957;28;20543;-85
2023/05/31 10:22:20;;;;;;;8.27;2.90;;;;;;;;;;5019365;28;20084;-85
2023/05/31 10:24:57;;;;;;;10.20;2.80;;;;;;;;;;5017982;28;20500;-85
2023/05/31 10:27:29;;;;;;;5.70;2.75;;;;;;;;;;5007372;28;20488;-86
2023/05/31 10:30:04;;;;;;;6.20;2.80;;;;;;;;;;5011105;28;20030;-84
2023/05/31 10:32:33;;;;;;;6.95;3.13;;;;;;;;;;5009153;28;20046;-85
2023/05/31 10:35:00;;;;;;;9.00;3.10;;;;;;;;;;5003679;28;20034;-85
2023/05/31 10:37:26;;;;;;;8.70;3.50;;;;;;;;;;5004121;28;20056;-85
2023/05/31 10:40:21;;;;;;;10.70;3.00;;;;;;;;;;5005320;28;20038;-86
2023/05/31 10:43:05;;;;;;;7.18;3.13;;;;;;;;;;5019657;28;20049;-85
2023/05/31 10:45:36;;;;;;;7.05;2.95;;;;;;;;;;5014745;28;20065;-85
2023/05/31 10:48:26;;;;;;;7.47;3.08;;;;;;;;;;5017127;28;20029;-86
2023/05/31 10:50:58;;;;;;;8.85;3.17;;;;;;;;;;5003475;28;20038;-85
2023/05/31 10:53:48;;;;;;;7.85;2.70;;;;;;;;;;5009282;28;20034;-85
2023/05/31 10:56:14;;;;;;;7.78;3.22;;;;;;;;;;5014194;28;20034;-86
2023/05/31 10:58:41;;;;;;;9.88;3.08;;;;;;;;;;5022580;28;20034;-86
2023/05/31 11:01:10;;;;;;;7.07;3.22;;;;;;;;;;5021814;28;20495;-86
2023/05/31 11:03:42;;;;;;;7.95;2.80;;;;;;;;;;5006270;28;20034;-86
2023/05/31 11:06:09;;;;;;;9.13;3.08;;;;;;;;;;5010944;28;20051;-87
2023/05/31 11:08:35;;;;;;;12.70;3.25;;;;;;;;;;5017549;28;20029;-87
2023/05/31 11:11:32;;;;;;;6.68;2.92;;;;;;;;;;5018228;28;20054;-86
2023/05/31 11:14:07;;;;;;;7.15;3.00;;;;;;;;;;5020181;28;20034;-86
2023/05/31 11:16:53;;;;;;;8.05;3.20;;;;;;;;;;5016828;28;20120;-88
2023/05/31 11:19:28;;;;;;;7.57;2.97;;;;;;;;;;5012417;28;20022;-85
2023/05/31 11:21:56;;;;;;;6.68;3.20;;;;;;;;;;5014353;28;20098;-84
2023/05/31 11:24:24;;;;;;;6.70;2.70;;;;;;;;;;5010786;28;20038;-85
2023/05/31 11:26:54;;;;;;;9.88;3.20;;;;;;;;;;5012965;28;20026;-86
2023/05/31 11:29:20;;;;;;;8.27;3.17;;;;;;;;;;5010451;28;20060;-86
2023/05/31 11:31:54;;;;;;;8.07;3.00;;;;;;;;;;5002994;28;20038;-86
2023/05/31 11:34:28;;;;;;;9.07;3.20;;;;;;;;;;5006077;28;20033;-86
2023/05/31 11:36:57;;;;;;;9.85;3.20;;;;;;;;;;5001090;28;20110;-86
2023/05/31 11:39:22;;;;;;;7.38;3.25;;;;;;;;;;4996875;28;20033;-84
2023/05/31 11:41:48;;;;;;;8.77;3.08;;;;;;;;;;4998043;28;20042;-84
2023/05/31 11:44:18;;;;;;;9.35;3.13;;;;;;;;;;5003441;28;20096;-87
2023/05/31 11:46:46;;;;;;;10.95;3.22;;;;;;;;;;5011086;28;20653;-84
2023/05/31 11:49:13;;;;;;;9.23;3.20;;;;;;;;;;5015147;28;20034;-84
2023/05/31 11:51:48;;;;;;;5.32;3.03;;;;;;;;;;5018451;28;20073;-86
2023/05/31 11:54:14;;;;;;;13.80;3.45;;;;;;;;;;5001783;28;20085;-86
2023/05/31 11:56:40;;;;;;;7.47;3.30;;;;;;;;;;5014938;28;20038;-85
2023/05/31 11:59:05;;;;;;;7.55;3.47;;;;;;;;;;5008360;28;20488;-84
2023/05/31 12:01:40;;;;;;;7.95;3.25;;;;;;;;;;5012557;28;20380;-84
2023/05/31 12:04:06;;;;;;;9.13;3.20;;;;;;;;;;5016807;28;20034;-84
2023/05/31 12:06:33;;;;;;;6.63;3.20;;;;;;;;;;5013281;28;20042;-84
2023/05/31 12:08:59;;;;;;;5.68;3.10;;;;;;;;;;5002202;28;20037;-86
2023/05/31 12:11:25;;;;;;;8.02;3.17;;;;;;;;;;5006927;28;20102;-85
2023/05/31 12:13:54;;;;;;;7.50;3.22;;;;;;;;;;5015875;28;20058;-86
2023/05/31 12:16:20;;;;;;;6.13;3.00;;;;;;;;;;5014012;28;20038;-86
2023/05/31 12:18:49;;;;;;;6.75;3.30;;;;;;;;;;5004170;28;20037;-85
2023/05/31 12:21:15;;;;;;;6.60;3.70;;;;;;;;;;5000945;28;20032;-85
2023/05/31 12:24:11;;;;;;;9.85;3.40;;;;;;;;;;5004302;28;20036;-84
2023/05/31 12:26:37;;;;;;;10.18;3.50;;;;;;;;;;4995448;28;20112;-85
2023/05/31 12:29:03;;;;;;;10.05;3.08;;;;;;;;;;5014269;28;20030;-85
2023/05/31 12:31:32;;;;;;;4.88;3.03;;;;;;;;;;5005840;28;20042;-85
2023/05/31 12:34:07;;;;;;;7.85;3.20;;;;;;;;;;5001726;28;20058;-86
2023/05/31 12:36:38;;;;;;;6.97;3.28;;;;;;;;;;5006950;28;20044;-85
2023/05/31 12:39:11;;;;;;;6.13;3.17;;;;;;;;;;5009326;28;20121;-86
2023/05/31 12:41:38;;;;;;;6.18;3.25;;;;;;;;;;5015834;28;20034;-85
2023/05/31 12:44:05;;;;;;;6.70;3.35;;;;;;;;;;5015458;28;20037;-85
2023/05/31 12:46:38;;;;;;;9.70;3.60;;;;;;;;;;5005890;28;20049;-85
2023/05/31 12:49:24;;;;;;;7.32;3.17;;;;;;;;;;5009842;28;20030;-86
2023/05/31 12:52:09;;;;;;;9.15;3.40;;;;;;;;;;5012620;28;20033;-82
2023/05/31 12:54:38;;;;;;;9.20;3.45;;;;;;;;;;5015529;28;20056;-84
2023/05/31 12:57:06;;;;;;;8.40;3.03;;;;;;;;;;5001825;28;20050;-84
2023/05/31 12:59:32;;;;;;;7.78;3.30;;;;;;;;;;5013360;28;20034;-85
2023/05/31 13:01:58;;;;;;;6.75;3.30;;;;;;;;;;5006001;28;20044;-84
2023/05/31 13:04:27;;;;;;;7.22;3.63;;;;;;;;;;5009910;28;20492;-85
2023/05/31 13:06:53;;;;;;;6.35;3.30;;;;;;;;;;5013462;28;20104;-84
2023/05/31 13:09:19;;;;;;;8.93;3.33;;;;;;;;;;5006075;28;20046;-84
2023/05/31 13:11:48;;;;;;;9.40;3.33;;;;;;;;;;5001977;28;20476;-85
2023/05/31 13:14:14;;;;;;;6.90;3.17;;;;;;;;;;5008248;28;20033;-85
2023/05/31 13:16:41;;;;;;;6.07;3.25;;;;;;;;;;5012067;28;20038;-84
2023/05/31 13:19:07;;;;;;;5.45;3.40;;;;;;;;;;5014692;28;20391;-85
2023/05/31 13:21:33;;;;;;;7.10;3.22;;;;;;;;;;5015631;28;20065;-85
2023/05/31 13:23:59;;;;;;;6.85;3.42;;;;;;;;;;5005307;28;20038;-86
2023/05/31 13:26:29;;;;;;;9.15;3.55;;;;;;;;;;5009503;28;20413;-84
2023/05/31 13:28:59;;;;;;;8.38;3.50;;;;;;;;;;5012410;28;20065;-84
2023/05/31 13:31:25;;;;;;;6.15;3.00;;;;;;;;;;5017788;28;20034;-87
2023/05/31 13:33:51;;;;;;;6.82;3.30;;;;;;;;;;5009048;28;20049;-83
2023/05/31 13:36:17;;;;;;;11.40;3.38;;;;;;;;;;5000800;28;20444;-82
2023/05/31 13:38:43;;;;;;;4.72;3.30;;;;;;;;;;5004458;28;20492;-82
2023/05/31 13:41:09;;;;;;;6.95;3.10;;;;;;;;;;5008427;28;20065;-83
2023/05/31 13:43:37;;;;;;;8.30;3.10;;;;;;;;;;5012516;28;20034;-83
2023/05/31 13:46:03;;;;;;;7.05;3.45;;;;;;;;;;5016202;28;20399;-83
2023/05/31 13:48:29;;;;;;;10.55;3.58;;;;;;;;;;5012282;28;20737;-84
2023/05/31 13:50:54;;;;;;;7.65;3.08;;;;;;;;;;5033260;23;20068;-87
2023/05/31 13:53:21;;;;;;;11.13;3.28;;;;;;;;;;5040436;28;20043;-87
2023/05/31 13:55:47;;;;;;;6.28;3.33;;;;;;;;;;5043658;28;20095;-85
2023/05/31 13:58:13;;;;;;;5.82;3.17;;;;;;;;;;5062480;28;20034;-86
2023/05/31 14:00:38;;;;;;;10.68;3.30;;;;;;;;;;5049703;28;20040;-87
2023/05/31 14:03:04;;;;;;;41.58;4.90;;;;;;;;;;5059120;28;20041;-85
2023/05/31 14:05:29;;;;;;;16.38;3.70;;;;;;;;;;5037922;28;20411;-84
2023/05/31 14:07:56;;;;;;;7.53;3.30;;;;;;;;;;5038161;28;20029;-87
2023/05/31 14:10:21;;;;;;;5.35;3.13;;;;;;;;;;5044593;28;20098;-83
2023/05/31 14:12:48;;;;;;;5.35;3.22;;;;;;;;;;5054404;28;20042;-86
2023/05/31 14:15:14;;;;;;;6.93;3.22;;;;;;;;;;5029727;28;20028;-86
2023/05/31 14:17:39;;;;;;;9.15;3.30;;;;;;;;;;5052612;28;20494;-85
2023/05/31 14:20:05;;;;;;;7.45;3.40;;;;;;;;;;5053529;28;20037;-87
2023/05/31 14:22:32;;;;;;;7.65;3.42;;;;;;;;;;5033099;28;20044;-85
2023/05/31 14:24:57;;;;;;;8.13;3.38;;;;;;;;;;5051889;28;20034;-85
2023/05/31 14:27:23;;;;;;;6.40;3.30;;;;;;;;;;5053042;28;20389;-83
2023/05/31 14:29:48;;;;;;;6.78;3.33;;;;;;;;;;5044393;28;20044;-85
2023/05/31 14:32:14;;;;;;;11.63;3.20;;;;;;;;;;5047909;28;20048;-86
2023/05/31 14:34:40;;;;;;;6.05;3.47;;;;;;;;;;5050254;28;20114;-85
2023/05/31 14:37:06;;;;;;;6.28;3.35;;;;;;;;;;5050454;28;20051;-86
2023/05/31 14:39:32;;;;;;;7.15;3.17;;;;;;;;;;5037400;28;20029;-84
2023/05/31 14:41:58;;;;;;;7.90;3.15;;;;;;;;;;5039268;28;20091;-85
2023/05/31 14:44:24;;;;;;;7.43;3.55;;;;;;;;;;5041816;28;20490;-85
2023/05/31 14:46:52;;;;;;;9.13;3.53;;;;;;;;;;5052516;28;20564;-86
2023/05/31 14:49:18;;;;;;;7.10;3.20;;;;;;;;;;5049806;28;20407;-85
2023/05/31 14:51:44;;;;;;;10.45;3.47;;;;;;;;;;5052631;28;20045;-84